createdAt,value
2023-06-30T00:03:28.166Z,12.74
2023-06-30T00:08:35.229Z,12.34
2023-06-30T00:13:42.557Z,12.79
2023-06-30T00:18:49.711Z,12.15
2023-06-30T00:23:56.977Z,14.44
2023-06-30T00:29:04.231Z,14.27
2023-06-30T00:34:11.485Z,13.62
2023-06-30T00:39:18.645Z,15.43
2023-06-30T00:44:25.905Z,13.79
2023-06-30T00:49:33.129Z,13.44
2023-06-30T00:54:40.433Z,12.62
2023-06-30T00:59:47.678Z,13.97
2023-06-30T01:04:55.150Z,12.88
2023-06-30T01:10:02.250Z,13.08
2023-06-30T01:15:09.643Z,14.36
2023-06-30T01:20:16.936Z,14.30
2023-06-30T01:25:24.282Z,11.60
2023-06-30T01:30:31.564Z,10.31
2023-06-30T01:35:38.716Z,10.06
2023-06-30T01:40:45.869Z,9.50
2023-06-30T01:45:53.166Z,9.23
2023-06-30T01:51:00.347Z,8.29
2023-06-30T01:56:07.712Z,9.50
2023-06-30T02:01:14.954Z,7.92
2023-06-30T02:06:22.233Z,6.93
2023-06-30T02:11:29.418Z,7.95
2023-06-30T02:16:36.693Z,7.66
2023-06-30T02:21:43.874Z,7.08
2023-06-30T02:26:51.134Z,6.38
2023-06-30T02:31:58.334Z,4.84
2023-06-30T02:37:05.557Z,6.59
2023-06-30T02:42:12.824Z,7.11
2023-06-30T02:47:20.150Z,5.32
2023-06-30T02:52:27.253Z,5.30
2023-06-30T02:57:34.637Z,4.51
2023-06-30T03:02:42.057Z,7.37
2023-06-30T03:07:49.239Z,7.42
2023-06-30T03:12:56.409Z,4.82
2023-06-30T03:18:03.759Z,5.64
2023-06-30T03:23:10.847Z,6.95
2023-06-30T03:28:18.236Z,5.48
2023-06-30T03:33:25.489Z,6.37
2023-06-30T03:38:32.818Z,6.33
2023-06-30T03:43:40.093Z,4.54
2023-06-30T03:48:47.419Z,5.04
2023-06-30T03:53:54.668Z,5.07
2023-06-30T03:59:01.859Z,5.81
2023-06-30T04:04:09.138Z,4.75
2023-06-30T04:09:16.447Z,4.85
2023-06-30T04:14:23.695Z,7.14
2023-06-30T04:19:30.996Z,5.95
2023-06-30T04:24:38.154Z,9.56
2023-06-30T04:29:45.354Z,6.88
2023-06-30T04:34:52.581Z,6.72
2023-06-30T04:39:59.836Z,6.37
2023-06-30T04:45:06.981Z,6.20
2023-06-30T04:50:14.308Z,5.90
2023-06-30T04:55:21.457Z,5.02
2023-06-30T05:00:28.733Z,5.88
2023-06-30T05:05:35.886Z,7.37
2023-06-30T05:10:43.325Z,6.18
2023-06-30T05:15:50.833Z,6.74
2023-06-30T05:20:57.425Z,8.69
2023-06-30T05:26:04.584Z,7.23
2023-06-30T05:31:11.926Z,9.46
2023-06-30T05:36:19.062Z,6.75
2023-06-30T05:41:26.302Z,11.22
2023-06-30T05:46:33.475Z,8.69
2023-06-30T05:51:40.756Z,7.96
2023-06-30T05:56:47.963Z,7.97
2023-06-30T06:01:55.375Z,8.19
2023-06-30T06:07:03.618Z,10.72
2023-06-30T06:12:09.460Z,5.64
2023-06-30T06:17:16.745Z,8.40
2023-06-30T06:22:24.107Z,9.40
2023-06-30T06:27:31.423Z,8.38
2023-06-30T06:32:38.751Z,9.16
2023-06-30T06:37:45.788Z,9.01
2023-06-30T06:42:53.043Z,6.76
2023-06-30T06:48:00.365Z,8.51
2023-06-30T06:53:07.608Z,7.10
2023-06-30T06:58:14.798Z,7.89
2023-06-30T07:03:22.261Z,5.23
2023-06-30T07:08:29.413Z,6.29
2023-06-30T07:13:36.719Z,8.08
2023-06-30T07:18:44.008Z,7.00
2023-06-30T07:23:51.312Z,5.55
2023-06-30T07:28:58.462Z,5.30
2023-06-30T07:34:05.842Z,5.14
2023-06-30T07:39:13.139Z,6.94
2023-06-30T07:44:20.520Z,4.90
2023-06-30T07:49:27.746Z,7.42
2023-06-30T07:54:35.053Z,5.60
2023-06-30T07:59:42.305Z,5.50
2023-06-30T08:04:49.710Z,8.78
2023-06-30T08:09:56.862Z,5.27
2023-06-30T08:15:04.326Z,4.41
2023-06-30T08:20:11.695Z,7.43
2023-06-30T08:25:18.937Z,6.05
2023-06-30T08:30:26.143Z,5.47
2023-06-30T08:35:33.461Z,3.84
2023-06-30T08:40:40.728Z,4.67
2023-06-30T08:45:48.278Z,4.93
2023-06-30T08:50:55.180Z,3.84
2023-06-30T08:56:04.201Z,5.08
2023-06-30T09:01:11.618Z,5.33
2023-06-30T09:06:18.948Z,6.86
2023-06-30T09:11:26.153Z,3.29
2023-06-30T09:16:33.538Z,4.75
2023-06-30T09:21:40.635Z,5.30
2023-06-30T09:26:47.901Z,4.09
2023-06-30T09:31:55.168Z,5.95
2023-06-30T09:37:02.437Z,5.67
2023-06-30T09:42:09.571Z,3.74
2023-06-30T09:47:16.964Z,2.98
2023-06-30T09:52:24.096Z,5.60
2023-06-30T09:57:31.433Z,2.68
2023-06-30T10:02:38.808Z,3.52
2023-06-30T10:07:46.047Z,2.87
2023-06-30T10:12:53.307Z,2.73
2023-06-30T10:18:00.804Z,2.71
2023-06-30T10:23:08.288Z,4.18
2023-06-30T10:28:15.683Z,5.24
2023-06-30T10:33:22.937Z,3.77
2023-06-30T10:38:30.244Z,3.80
2023-06-30T10:43:37.507Z,2.64
2023-06-30T10:48:44.878Z,4.13
2023-06-30T10:53:52.159Z,2.94
2023-06-30T10:58:59.736Z,3.47
2023-06-30T11:04:07.603Z,5.80
2023-06-30T11:09:13.836Z,4.21
2023-06-30T11:14:21.123Z,3.77
2023-06-30T11:19:28.597Z,3.89
2023-06-30T11:24:35.831Z,3.54
2023-06-30T11:29:43.335Z,4.72
2023-06-30T11:34:50.391Z,3.04
2023-06-30T11:39:57.693Z,4.36
2023-06-30T11:45:04.982Z,1.70
2023-06-30T11:50:12.439Z,4.13
2023-06-30T11:55:19.595Z,2.97
2023-06-30T12:00:26.965Z,3.33
2023-06-30T12:05:34.148Z,4.57
2023-06-30T12:10:41.658Z,2.83
2023-06-30T12:15:48.928Z,2.47
2023-06-30T12:20:56.552Z,2.32
2023-06-30T12:26:03.762Z,2.67
2023-06-30T12:31:11.225Z,4.94
2023-06-30T12:36:18.459Z,2.36
2023-06-30T12:41:25.905Z,2.12
2023-06-30T12:46:33.278Z,6.06
2023-06-30T12:51:40.602Z,2.25
2023-06-30T12:56:47.791Z,4.04
2023-06-30T13:01:55.136Z,4.55
2023-06-30T13:07:02.384Z,4.74
2023-06-30T13:12:09.764Z,2.03
2023-06-30T13:17:17.064Z,3.11
2023-06-30T13:22:24.347Z,1.67
2023-06-30T13:27:31.567Z,1.56
2023-06-30T13:32:45.971Z,1.90
2023-06-30T13:37:43.261Z,1.90
2023-06-30T13:42:50.729Z,1.32
2023-06-30T13:47:57.960Z,0.99
2023-06-30T13:53:05.295Z,1.42
2023-06-30T13:58:12.429Z,1.83
2023-06-30T14:03:19.786Z,1.59
2023-06-30T14:08:27.031Z,1.03
2023-06-30T14:13:34.465Z,1.44
2023-06-30T14:18:41.711Z,1.58
2023-06-30T14:23:49.044Z,0.84
2023-06-30T14:28:56.239Z,0.86
2023-06-30T14:34:03.629Z,0.91
2023-06-30T14:39:10.924Z,0.70
2023-06-30T14:44:18.193Z,1.64
2023-06-30T14:49:25.482Z,0.80
2023-06-30T14:54:32.766Z,1.55
2023-06-30T14:59:40.056Z,0.89
2023-06-30T15:04:47.473Z,0.68
2023-06-30T15:09:54.543Z,0.88
2023-06-30T15:15:02.024Z,0.94
2023-06-30T15:20:09.389Z,1.05
2023-06-30T15:25:16.778Z,1.01
2023-06-30T15:30:24.063Z,0.89
2023-06-30T15:35:31.401Z,1.27
2023-06-30T15:40:38.677Z,0.78
2023-06-30T15:45:46.155Z,1.73
2023-06-30T15:50:52.616Z,1.44
2023-06-30T15:55:59.899Z,1.24
2023-06-30T16:01:07.141Z,1.00
2023-06-30T16:06:14.454Z,3.58
2023-06-30T16:11:21.642Z,1.16
2023-06-30T16:16:28.955Z,1.24
2023-06-30T16:21:36.232Z,2.06
2023-06-30T16:26:43.615Z,3.52
2023-06-30T16:31:50.815Z,0.93
2023-06-30T16:36:58.222Z,1.00
2023-06-30T16:42:05.507Z,2.12
2023-06-30T16:47:12.932Z,0.94
2023-06-30T16:52:20.038Z,1.12
2023-06-30T16:57:27.432Z,1.19
2023-06-30T17:02:34.812Z,0.98
2023-06-30T17:07:41.952Z,1.51
2023-06-30T17:12:49.098Z,2.72
2023-06-30T17:17:56.451Z,1.51
2023-06-30T17:23:03.585Z,0.92
2023-06-30T17:28:10.897Z,1.63
2023-06-30T17:33:18.206Z,1.26
2023-06-30T17:38:25.534Z,1.81
2023-06-30T17:43:32.716Z,1.05
2023-06-30T17:48:39.988Z,3.41
2023-06-30T17:53:47.150Z,1.51
2023-06-30T17:58:54.419Z,1.58
2023-06-30T18:04:01.762Z,1.47
2023-06-30T18:09:08.914Z,1.84
2023-06-30T18:14:16.061Z,1.68
2023-06-30T18:19:23.436Z,2.72
2023-06-30T18:24:30.667Z,2.24
2023-06-30T18:29:38.040Z,1.79
2023-06-30T18:34:45.188Z,2.86
2023-06-30T18:39:52.418Z,2.24
2023-06-30T18:44:59.680Z,1.79
2023-06-30T18:50:07.031Z,2.26
2023-06-30T18:55:14.312Z,3.59
2023-06-30T19:00:21.634Z,1.27
2023-06-30T19:05:28.826Z,2.61
2023-06-30T19:10:36.108Z,1.87
2023-06-30T19:15:43.408Z,1.11
2023-06-30T19:20:50.111Z,2.56
2023-06-30T19:25:57.443Z,1.10
2023-06-30T19:31:04.953Z,1.67
2023-06-30T19:36:12.153Z,3.37
2023-06-30T19:41:19.473Z,2.50
2023-06-30T19:46:26.623Z,3.42
2023-06-30T19:51:33.928Z,1.84
2023-06-30T19:56:41.219Z,3.31
2023-06-30T20:01:48.605Z,2.64
2023-06-30T20:06:55.836Z,2.81
2023-06-30T20:12:03.222Z,2.94
2023-06-30T20:17:10.087Z,2.40
2023-06-30T20:22:17.470Z,2.76
2023-06-30T20:27:24.636Z,2.79
2023-06-30T20:32:32.136Z,1.99
2023-06-30T20:37:39.372Z,4.02
2023-06-30T20:42:46.804Z,2.61
2023-06-30T20:47:54.082Z,2.90
2023-06-30T20:53:01.450Z,2.28
2023-06-30T20:58:08.669Z,2.41
2023-06-30T21:03:15.963Z,2.49
2023-06-30T21:13:30.014Z,2.55
2023-06-30T21:18:37.278Z,2.31
2023-06-30T21:23:44.525Z,4.12
2023-06-30T21:28:51.817Z,2.90
2023-06-30T21:33:59.247Z,2.38
2023-06-30T21:39:06.546Z,2.36
2023-06-30T21:44:13.994Z,6.02
2023-06-30T21:49:21.203Z,6.60
2023-06-30T21:54:41.140Z,3.05
2023-06-30T21:59:35.229Z,2.56
2023-06-30T22:04:42.696Z,3.09
2023-06-30T22:09:49.950Z,3.53
2023-06-30T22:14:57.413Z,3.17
2023-06-30T22:20:04.545Z,4.21
2023-06-30T22:25:11.950Z,3.15
2023-06-30T22:30:19.106Z,2.30
2023-06-30T22:35:26.589Z,4.98
2023-06-30T22:40:33.758Z,3.44
2023-06-30T22:45:41.195Z,5.01
2023-06-30T22:50:48.736Z,6.14
2023-06-30T22:55:55.771Z,3.17
2023-06-30T23:01:03.055Z,2.89
2023-06-30T23:06:10.285Z,3.88
2023-06-30T23:11:17.559Z,3.49
2023-06-30T23:16:24.878Z,4.30
2023-06-30T23:21:32.037Z,4.02
2023-06-30T23:26:39.326Z,2.31
2023-06-30T23:31:46.479Z,4.10
2023-06-30T23:36:53.768Z,5.35
2023-06-30T23:42:00.947Z,2.98
2023-06-30T23:47:08.308Z,3.14
2023-06-30T23:52:15.394Z,4.64
2023-06-30T23:57:22.661Z,2.83
